Time;durP1;ratioP1;P1;durP2;ratioP2;P2;SDS_P1;SDS_P2;PMS_P1;PMS_P2;Temp;Humidity;BMP_temperature;BMP_pressure;BME280_temperature;BME280_humidity;BME280_pressure;Samples;Min_cycle;Max_cycle;Signal;HPM_P1;HPM_P2
2022/03/03 00:00:25;;;;;;;16.23;9.67;;;;;;;0.81;92.64;94271.97;5033827;28;20186;-64
2022/03/03 00:02:50;;;;;;;13.73;8.83;;;;;;;0.81;92.75;94266.97;5033778;28;20179;-64
2022/03/03 00:05:16;;;;;;;13.40;7.87;;;;;;;0.80;92.91;94266.19;5033529;28;20656;-64
2022/03/03 00:07:42;;;;;;;15.73;9.57;;;;;;;0.91;92.43;94268.09;5033860;28;20191;-63
2022/03/03 00:10:09;;;;;;;13.27;8.80;;;;;;;0.95;91.91;94274.56;5032172;28;20188;-65
2022/03/03 00:12:34;;;;;;;14.83;8.83;;;;;;;0.85;92.07;94263.44;5033242;28;20183;-64
2022/03/03 00:15:00;;;;;;;17.37;9.27;;;;;;;0.83;91.99;94256.00;5033288;28;20213;-64
2022/03/03 00:17:26;;;;;;;14.30;8.70;;;;;;;0.89;91.90;94256.59;5033326;28;20199;-62
2022/03/03 00:19:52;;;;;;;12.93;8.93;;;;;;;0.96;91.47;94266.16;5033579;28;20244;-62
2022/03/03 00:22:17;;;;;;;15.30;9.67;;;;;;;0.97;90.97;94277.78;5032088;28;20189;-65
2022/03/03 00:24:43;;;;;;;11.70;8.57;;;;;;;1.01;90.89;94256.72;5033309;28;20205;-63
2022/03/03 00:27:09;;;;;;;14.77;8.60;;;;;;;1.03;90.76;94261.66;5033206;28;20182;-63
2022/03/03 00:29:35;;;;;;;14.27;8.70;;;;;;;1.03;90.73;94269.16;5033380;28;20731;-62
2022/03/03 00:32:00;;;;;;;13.50;8.53;;;;;;;1.03;90.85;94262.44;5015112;28;20174;-63
2022/03/03 00:34:26;;;;;;;15.63;9.30;;;;;;;1.11;90.04;94267.81;5033004;28;20259;-63
2022/03/03 00:36:52;;;;;;;13.13;9.63;;;;;;;1.10;90.42;94263.72;5033026;28;20213;-63
2022/03/03 00:39:17;;;;;;;12.20;7.90;;;;;;;1.02;90.38;94252.50;5033431;28;20271;-64
2022/03/03 00:41:43;;;;;;;12.77;9.00;;;;;;;1.10;90.37;94253.72;5031604;28;20189;-64
2022/03/03 00:44:10;;;;;;;16.27;8.40;;;;;;;1.11;90.44;94264.53;5032711;28;20241;-64
2022/03/03 00:46:38;;;;;;;14.23;8.57;;;;;;;1.01;90.56;94261.72;5032772;28;20185;-63
2022/03/03 00:49:04;;;;;;;14.10;8.70;;;;;;;0.95;91.44;94243.75;5031589;28;20217;-64
2022/03/03 00:51:30;;;;;;;14.10;9.33;;;;;;;0.98;91.66;94243.56;5032621;28;20182;-64
2022/03/03 00:53:56;;;;;;;14.60;9.17;;;;;;;0.89;92.48;94252.38;5031487;28;20210;-63
2022/03/03 00:56:22;;;;;;;15.03;9.03;;;;;;;0.84;92.68;94239.31;5032322;28;20339;-64
2022/03/03 00:58:48;;;;;;;13.57;8.83;;;;;;;0.79;93.58;94236.25;5030603;28;20289;-63
2022/03/03 01:01:14;;;;;;;13.47;8.73;;;;;;;0.72;93.92;94235.78;5032651;28;20182;-64
2022/03/03 01:03:40;;;;;;;11.93;8.53;;;;;;;0.75;93.83;94239.78;5032717;28;20213;-64
2022/03/03 01:06:06;;;;;;;14.13;9.17;;;;;;;0.80;94.29;94231.19;5032431;28;20277;-65
2022/03/03 01:08:32;;;;;;;15.67;9.50;;;;;;;0.78;94.35;94237.97;5039566;23;20209;-64
2022/03/03 01:10:58;;;;;;;12.63;8.27;;;;;;;0.84;94.17;94227.63;5032374;28;20181;-63
2022/03/03 01:13:24;;;;;;;12.57;9.00;;;;;;;0.93;92.75;94235.50;5032587;28;20288;-63
2022/03/03 01:15:50;;;;;;;17.00;9.17;;;;;;;0.90;93.57;94238.97;5032213;28;20305;-63
2022/03/03 01:18:16;;;;;;;16.57;9.67;;;;;;;0.90;93.38;94236.47;5032231;28;20202;-66
2022/03/03 01:20:42;;;;;;;14.10;8.87;;;;;;;0.85;93.59;94238.41;5032169;28;20186;-64
2022/03/03 01:23:08;;;;;;;18.73;9.60;;;;;;;0.90;93.38;94236.47;5032261;28;20275;-65
2022/03/03 01:25:33;;;;;;;14.93;9.03;;;;;;;0.85;94.17;94229.22;5030891;28;20707;-64
2022/03/03 01:28:00;;;;;;;15.43;9.87;;;;;;;0.91;93.57;94232.28;5030774;28;20694;-64
2022/03/03 01:30:26;;;;;;;14.57;9.03;;;;;;;0.88;93.94;94228.25;5031987;28;20220;-66
2022/03/03 01:32:51;;;;;;;12.50;8.43;;;;;;;0.90;94.00;94221.47;5031939;28;20178;-63
2022/03/03 01:35:17;;;;;;;16.50;9.53;;;;;;;0.88;94.37;94218.25;5032286;28;20376;-64
2022/03/03 01:37:43;;;;;;;14.83;9.63;;;;;;;0.82;94.47;94223.59;5031777;28;20189;-63
2022/03/03 01:40:10;;;;;;;14.53;9.23;;;;;;;0.81;94.75;94217.78;5030473;28;20220;-63
2022/03/03 01:42:35;;;;;;;13.67;10.27;;;;;;;0.85;94.89;94215.91;5032021;28;20618;-63
2022/03/03 01:45:03;;;;;;;20.03;9.40;;;;;;;0.88;94.51;94222.44;5032173;28;20276;-64
2022/03/03 01:47:28;;;;;;;20.53;10.50;;;;;;;0.90;94.75;94205.66;5031542;28;20178;-63
2022/03/03 01:49:56;;;;;;;16.40;9.60;;;;;;;0.83;94.80;94195.97;5032026;28;20644;-66
2022/03/03 01:52:21;;;;;;;17.57;10.10;;;;;;;0.84;94.83;94211.81;5031643;28;20235;-64
2022/03/03 01:54:47;;;;;;;15.07;9.20;;;;;;;0.86;94.81;94212.53;5031755;28;20328;-64
2022/03/03 01:57:17;;;;;;;13.73;9.07;;;;;;;0.83;94.69;94205.16;5031503;28;20652;-64
2022/03/03 01:59:43;;;;;;;13.47;10.07;;;;;;;0.86;95.05;94205.03;5031891;28;20201;-64
2022/03/03 02:02:10;;;;;;;15.27;9.50;;;;;;;0.87;94.73;94209.13;5030104;28;20232;-63
2022/03/03 02:04:36;;;;;;;15.87;10.13;;;;;;;0.85;95.48;94194.19;5030089;28;20252;-63
2022/03/03 02:07:02;;;;;;;15.10;9.73;;;;;;;0.92;94.76;94206.38;5031233;28;20239;-64
2022/03/03 02:09:28;;;;;;;16.10;10.80;;;;;;;0.88;95.43;94197.44;5031106;28;20213;-64
2022/03/03 02:11:53;;;;;;;15.63;9.97;;;;;;;0.84;96.03;94199.28;5031187;28;20183;-65
2022/03/03 02:14:19;;;;;;;17.80;10.47;;;;;;;0.76;96.71;94196.41;5031647;28;20201;-65
2022/03/03 02:16:44;;;;;;;24.77;11.43;;;;;;;0.79;96.66;94203.72;5031201;28;20201;-63
2022/03/03 02:19:21;;;;;;;15.53;10.30;;;;;;;0.89;96.28;94207.34;5029856;28;20202;-64
2022/03/03 02:21:51;;;;;;;19.27;10.70;;;;;;;0.91;96.11;94203.06;5029808;28;20189;-62
2022/03/03 02:24:18;;;;;;;16.43;10.93;;;;;;;0.88;96.48;94202.44;5029994;28;20275;-63
2022/03/03 02:26:45;;;;;;;16.23;10.63;;;;;;;0.82;96.91;94201.06;5031149;28;20200;-63
2022/03/03 02:29:11;;;;;;;18.47;10.07;;;;;;;0.79;97.51;94206.22;5031407;28;20559;-63
2022/03/03 02:31:36;;;;;;;13.33;9.77;;;;;;;0.75;97.95;94199.78;5031444;28;20648;-64
2022/03/03 02:34:02;;;;;;;17.70;10.70;;;;;;;0.80;97.84;94200.34;5031425;28;20206;-63
2022/03/03 02:36:29;;;;;;;14.73;10.20;;;;;;;0.82;97.64;94208.56;5030025;28;20221;-62
2022/03/03 02:38:58;;;;;;;18.03;11.00;;;;;;;0.90;97.24;94213.97;5031205;28;20291;-63
2022/03/03 02:41:25;;;;;;;15.93;10.17;;;;;;;1.01;97.01;94210.88;5031229;28;20193;-63
2022/03/03 02:43:50;;;;;;;16.90;10.23;;;;;;;0.95;97.21;94213.72;5029643;28;20206;-63
2022/03/03 02:46:16;;;;;;;17.63;10.97;;;;;;;0.91;97.63;94208.06;5031096;28;20213;-65
2022/03/03 02:48:42;;;;;;;20.90;12.10;;;;;;;0.85;98.05;94200.91;5031036;28;20742;-63
2022/03/03 02:51:08;;;;;;;16.13;9.83;;;;;;;0.80;98.67;94200.34;5031242;28;20189;-64
2022/03/03 02:53:35;;;;;;;20.43;11.37;;;;;;;0.77;99.09;94195.50;5030913;28;20256;-64
2022/03/03 02:56:01;;;;;;;17.33;11.03;;;;;;;0.84;99.11;94207.63;5031039;28;20236;-64
2022/03/03 02:58:26;;;;;;;17.67;10.57;;;;;;;0.82;98.66;94201.06;5030601;28;20599;-62
2022/03/03 03:00:52;;;;;;;17.17;10.73;;;;;;;0.77;99.13;94206.31;5030852;28;20189;-66
2022/03/03 03:03:19;;;;;;;16.57;10.47;;;;;;;0.71;99.81;94206.66;5030678;28;20202;-63
2022/03/03 03:05:45;;;;;;;18.20;11.10;;;;;;;0.80;99.23;94200.34;5031062;28;20195;-64
2022/03/03 03:08:11;;;;;;;16.77;10.60;;;;;;;0.77;99.90;94210.50;5030827;28;20233;-64
2022/03/03 03:10:38;;;;;;;15.07;10.20;;;;;;;0.72;100.00;94199.97;5031458;28;20200;-64
2022/03/03 03:13:04;;;;;;;19.27;11.33;;;;;;;0.79;99.77;94197.03;5030531;28;20256;-64
2022/03/03 03:15:31;;;;;;;16.27;10.87;;;;;;;0.79;100.00;94202.03;5030512;28;20217;-65
2022/03/03 03:18:08;;;;;;;17.50;9.80;;;;;;;0.85;99.81;94203.38;5030753;28;20195;-62
2022/03/03 03:20:33;;;;;;;16.07;10.77;;;;;;;0.78;100.00;94204.63;5031758;28;20177;-64
2022/03/03 03:22:59;;;;;;;14.87;10.27;;;;;;;0.75;100.00;94207.28;5032878;28;20579;-63
2022/03/03 03:25:24;;;;;;;17.63;11.40;;;;;;;0.77;100.00;94193.00;5034866;28;20272;-65
2022/03/03 03:27:49;;;;;;;18.10;11.03;;;;;;;0.73;100.00;94209.88;5034409;28;20266;-64
2022/03/03 03:30:15;;;;;;;16.03;10.13;;;;;;;0.78;100.00;94204.63;5034743;28;20664;-63
2022/03/03 03:32:41;;;;;;;16.23;10.43;;;;;;;0.75;100.00;94207.28;5034134;28;20182;-64
2022/03/03 03:35:07;;;;;;;19.43;11.23;;;;;;;0.73;100.00;94199.88;5033048;28;20648;-62
2022/03/03 03:37:36;;;;;;;18.50;12.30;;;;;;;0.73;100.00;94204.88;5034064;28;20178;-64
2022/03/03 03:40:06;;;;;;;18.70;11.60;;;;;;;0.72;100.00;94203.28;5032733;28;20186;-65
2022/03/03 03:42:32;;;;;;;18.47;10.80;;;;;;;0.61;100.00;94204.72;5032664;28;20265;-65
2022/03/03 03:44:57;;;;;;;18.17;11.03;;;;;;;0.62;100.00;94201.34;5034137;28;20395;-64
2022/03/03 03:47:23;;;;;;;22.27;11.70;;;;;;;0.63;100.00;94197.94;5033940;28;20561;-64
2022/03/03 03:49:48;;;;;;;16.77;11.10;;;;;;;0.68;100.00;94206.00;5033731;28;20216;-64
2022/03/03 03:52:14;;;;;;;18.07;10.93;;;;;;;0.63;100.00;94198.75;5033790;28;20664;-64
2022/03/03 03:54:40;;;;;;;19.90;11.83;;;;;;;0.75;100.00;94198.09;5034066;28;20224;-63
2022/03/03 03:57:06;;;;;;;17.53;11.33;;;;;;;0.74;100.00;94206.50;5033696;28;20189;-63
2022/03/03 03:59:32;;;;;;;16.87;10.83;;;;;;;0.80;100.00;94202.84;5034018;28;20683;-63
2022/03/03 04:01:57;;;;;;;17.67;10.97;;;;;;;0.78;99.73;94217.13;5033746;28;20216;-64
2022/03/03 04:04:23;;;;;;;17.57;10.77;;;;;;;0.80;100.00;94222.84;5033823;28;20228;-65
2022/03/03 04:06:48;;;;;;;17.67;11.17;;;;;;;0.77;100.00;94213.00;5033428;28;20190;-64
2022/03/03 04:09:14;;;;;;;17.97;11.07;;;;;;;0.84;99.91;94210.13;5033552;28;20292;-62
2022/03/03 04:11:40;;;;;;;15.20;10.33;;;;;;;0.79;100.00;94201.22;5033356;28;20218;-64
2022/03/03 04:14:08;;;;;;;17.30;11.00;;;;;;;0.77;100.00;94195.50;5032031;28;20656;-63
2022/03/03 04:16:33;;;;;;;16.67;10.37;;;;;;;0.66;100.00;94195.28;5033230;28;20210;-64
2022/03/03 04:19:00;;;;;;;15.73;10.63;;;;;;;0.72;100.00;94187.47;5032016;28;20268;-63
2022/03/03 04:21:26;;;;;;;17.00;10.97;;;;;;;0.76;99.86;94203.91;5033377;28;20265;-63
2022/03/03 04:23:51;;;;;;;19.13;11.20;;;;;;;0.82;100.00;94203.56;5031936;28;20308;-63
2022/03/03 04:26:17;;;;;;;16.97;10.43;;;;;;;0.72;99.49;94215.78;5033273;28;20631;-64
2022/03/03 04:28:42;;;;;;;21.07;11.60;;;;;;;0.81;99.58;94207.75;5033066;28;20260;-63
2022/03/03 04:31:08;;;;;;;18.50;10.57;;;;;;;0.78;100.00;94197.13;5032909;28;20178;-62
2022/03/03 04:33:33;;;;;;;17.20;10.80;;;;;;;0.77;100.00;94191.31;5033154;28;20221;-63
2022/03/03 04:35:59;;;;;;;17.30;11.40;;;;;;;0.70;99.82;94187.56;5031453;28;20209;-64
2022/03/03 04:38:25;;;;;;;18.73;11.13;;;;;;;0.81;99.18;94191.94;5031480;28;20217;-64
2022/03/03 04:40:51;;;;;;;16.80;10.80;;;;;;;0.73;99.31;94194.88;5032829;28;20190;-63
2022/03/03 04:43:17;;;;;;;16.63;11.20;;;;;;;0.70;99.71;94194.25;5032539;28;20557;-63
2022/03/03 04:45:45;;;;;;;16.57;10.30;;;;;;;0.74;100.00;94190.69;5031430;28;20262;-62
2022/03/03 04:48:11;;;;;;;17.40;10.63;;;;;;;0.71;100.00;94185.84;5041780;22;20222;-64
2022/03/03 04:50:36;;;;;;;20.30;12.00;;;;;;;0.77;99.75;94193.00;5040050;23;20238;-64
2022/03/03 04:53:02;;;;;;;17.37;11.17;;;;;;;0.78;99.54;94187.94;5032797;28;20251;-63
2022/03/03 04:55:28;;;;;;;15.90;10.33;;;;;;;0.77;99.53;94193.00;5031278;28;20704;-62
2022/03/03 04:57:54;;;;;;;19.63;11.00;;;;;;;0.73;100.00;94189.06;5031177;28;20210;-63
2022/03/03 05:00:19;;;;;;;18.17;10.20;;;;;;;0.75;99.77;94179.78;5032849;28;20206;-64
2022/03/03 05:02:45;;;;;;;16.73;10.47;;;;;;;0.64;100.00;94187.06;5032548;28;20657;-63
2022/03/03 05:05:11;;;;;;;23.60;11.43;;;;;;;0.55;100.00;94188.38;5032679;28;20549;-63
2022/03/03 05:07:36;;;;;;;16.23;10.27;;;;;;;0.62;100.00;94188.84;5032293;28;20188;-64
2022/03/03 05:10:03;;;;;;;15.90;10.80;;;;;;;0.57;100.00;94185.78;5032613;28;20182;-64
2022/03/03 05:12:29;;;;;;;19.83;10.23;;;;;;;0.62;100.00;94192.16;5032335;28;20195;-62
2022/03/03 05:14:56;;;;;;;19.67;10.23;;;;;;;0.63;100.00;94183.75;5032486;28;20205;-65
2022/03/03 05:17:22;;;;;;;18.20;10.67;;;;;;;0.64;100.00;94184.56;5031061;28;20193;-63
2022/03/03 05:19:48;;;;;;;17.13;10.17;;;;;;;0.56;100.00;94184.19;5032461;28;20212;-65
2022/03/03 05:22:14;;;;;;;15.33;10.33;;;;;;;0.62;100.00;94196.34;5031009;28;20186;-64
2022/03/03 05:24:39;;;;;;;18.63;11.50;;;;;;;0.60;99.92;94203.13;5032250;28;20212;-64
2022/03/03 05:27:06;;;;;;;16.43;9.80;;;;;;;0.59;100.00;94199.81;5032040;28;20182;-63
2022/03/03 05:29:32;;;;;;;14.80;10.17;;;;;;;0.61;99.96;94202.22;5031877;28;20700;-63
2022/03/03 05:31:58;;;;;;;17.37;10.67;;;;;;;0.58;100.00;94205.72;5032164;28;20175;-62
2022/03/03 05:34:27;;;;;;;18.83;11.00;;;;;;;0.70;99.88;94207.56;5032247;28;20205;-63
2022/03/03 05:36:53;;;;;;;16.27;10.43;;;;;;;0.75;100.00;94207.28;5031868;28;20248;-64
2022/03/03 05:39:19;;;;;;;18.33;10.87;;;;;;;0.77;99.79;94205.50;5031887;28;20696;-62
2022/03/03 05:41:45;;;;;;;21.13;11.43;;;;;;;0.88;100.00;94203.25;5032185;28;20264;-62
2022/03/03 05:44:14;;;;;;;19.83;11.03;;;;;;;0.91;99.95;94207.28;5030994;28;20710;-63
2022/03/03 05:46:44;;;;;;;21.87;11.43;;;;;;;0.92;99.37;94213.88;5030315;28;20212;-64
2022/03/03 05:49:10;;;;;;;18.30;10.80;;;;;;;0.72;100.00;94202.47;5030067;28;20208;-62
2022/03/03 05:51:36;;;;;;;15.10;9.57;;;;;;;0.72;99.59;94207.47;5031623;28;20180;-63
2022/03/03 05:54:02;;;;;;;16.30;10.07;;;;;;;0.75;99.22;94209.78;5031540;28;20194;-64
2022/03/03 05:56:32;;;;;;;15.07;9.57;;;;;;;0.91;98.15;94220.56;5031552;28;20224;-62
2022/03/03 05:59:07;;;;;;;19.47;10.73;;;;;;;0.96;97.04;94228.66;5030305;28;20199;-64
2022/03/03 06:01:38;;;;;;;16.37;9.87;;;;;;;0.96;96.61;94228.66;5031830;28;20166;-65
2022/03/03 06:04:06;;;;;;;18.70;10.70;;;;;;;1.01;96.06;94233.41;5031589;28;20284;-63
2022/03/03 06:06:36;;;;;;;18.90;10.37;;;;;;;1.00;95.67;94232.59;5031823;28;20178;-65
2022/03/03 06:09:10;;;;;;;19.70;11.43;;;;;;;1.09;95.74;94234.56;5031689;28;20285;-63
2022/03/03 06:12:02;;;;;;;20.77;11.20;;;;;;;1.01;95.24;94238.41;5031535;28;20189;-65
2022/03/03 06:14:38;;;;;;;20.27;10.87;;;;;;;0.84;94.78;94230.13;5030076;28;20205;-65
2022/03/03 06:17:04;;;;;;;17.63;10.83;;;;;;;0.94;94.91;94219.59;5031558;28;20198;-63
2022/03/03 06:19:30;;;;;;;23.30;10.67;;;;;;;0.90;94.87;94228.16;5031552;28;20635;-67
2022/03/03 06:21:56;;;;;;;18.17;11.00;;;;;;;0.81;94.79;94229.47;5031175;28;20224;-65
2022/03/03 06:24:29;;;;;;;16.63;10.13;;;;;;;0.87;94.41;94234.13;5029923;28;20602;-65
2022/03/03 06:26:54;;;;;;;16.73;10.40;;;;;;;0.86;94.13;94230.03;5031366;28;20261;-63
2022/03/03 06:29:20;;;;;;;20.20;10.80;;;;;;;0.98;93.98;94226.88;5031251;28;20719;-66
2022/03/03 06:31:45;;;;;;;22.07;10.03;;;;;;;1.13;92.64;94246.03;5031190;28;20182;-65
2022/03/03 06:34:11;;;;;;;20.00;10.83;;;;;;;1.13;91.89;94253.53;5031051;28;20566;-64
2022/03/03 06:36:37;;;;;;;20.90;10.77;;;;;;;1.32;90.69;94258.34;5031032;28;20205;-65
2022/03/03 06:39:07;;;;;;;16.73;10.57;;;;;;;1.25;89.52;94267.88;5031195;28;20205;-66
2022/03/03 06:41:32;;;;;;;20.07;10.97;;;;;;;1.13;89.53;94263.53;5038066;23;20308;-65
2022/03/03 06:43:58;;;;;;;25.33;11.67;;;;;;;1.21;88.99;94270.66;5031215;28;20723;-64
2022/03/03 06:46:23;;;;;;;20.43;10.53;;;;;;;1.24;89.19;94263.78;5031685;28;20262;-64
2022/03/03 06:48:49;;;;;;;18.43;10.00;;;;;;;1.29;88.09;94288.56;5031000;28;20209;-66
2022/03/03 06:51:20;;;;;;;19.37;10.70;;;;;;;1.31;87.06;94287.59;5030851;28;20285;-64
2022/03/03 06:53:47;;;;;;;20.40;11.27;;;;;;;1.40;87.55;94286.25;5031012;28;20669;-65
2022/03/03 06:56:13;;;;;;;17.27;10.13;;;;;;;1.29;86.07;94294.38;5035227;28;20225;-64
2022/03/03 06:58:39;;;;;;;17.17;9.63;;;;;;;1.44;86.40;94297.72;5034810;28;20264;-63
2022/03/03 07:01:12;;;;;;;16.73;9.47;;;;;;;1.48;85.45;94310.00;5033807;28;20190;-65
2022/03/03 07:03:39;;;;;;;19.40;10.40;;;;;;;1.50;85.00;94322.41;5034656;28;20244;-62
2022/03/03 07:06:06;;;;;;;18.30;10.17;;;;;;;1.42;84.41;94317.03;5033738;28;20252;-67
2022/03/03 07:08:33;;;;;;;20.00;11.00;;;;;;;1.46;85.15;94313.47;5034620;28;20236;-64
2022/03/03 07:10:59;;;;;;;21.03;10.50;;;;;;;1.41;84.34;94317.94;5033560;28;20194;-64
2022/03/03 07:13:25;;;;;;;17.37;9.77;;;;;;;1.49;84.43;94305.78;5034461;28;20669;-63
2022/03/03 07:16:10;;;;;;;16.93;9.90;;;;;;;1.47;83.95;94313.41;5035363;28;20614;-62
2022/03/03 07:18:40;;;;;;;16.10;9.97;;;;;;;1.40;84.01;94297.09;5034352;28;20686;-62
2022/03/03 07:21:14;;;;;;;20.50;10.57;;;;;;;1.59;83.27;94310.22;5035104;28;20197;-61
2022/03/03 07:23:44;;;;;;;18.80;10.23;;;;;;;1.45;82.65;94315.19;5033057;28;20267;-63
2022/03/03 07:26:13;;;;;;;17.63;9.90;;;;;;;1.55;82.35;94325.50;5037483;28;20190;-63
2022/03/03 07:28:49;;;;;;;16.97;9.43;;;;;;;1.48;82.50;94307.47;5034691;28;20703;-66
2022/03/03 07:31:17;;;;;;;19.13;10.03;;;;;;;1.49;82.25;94318.31;5033464;28;20203;-64
2022/03/03 07:36:13;;;;;;;20.95;10.60;;;;;;;1.50;81.91;94320.72;5037325;22;20249;-66
2022/03/03 07:38:40;;;;;;;21.10;11.20;;;;;;;1.52;81.76;94310.63;5040944;23;20255;-65
2022/03/03 07:41:09;;;;;;;19.23;10.47;;;;;;;1.63;81.22;94310.84;5034661;28;20179;-65
2022/03/03 07:43:35;;;;;;;18.40;11.60;;;;;;;1.75;80.80;94320.19;5034864;28;20601;-65
2022/03/03 07:46:02;;;;;;;16.67;9.80;;;;;;;1.81;80.46;94324.03;5034474;28;20181;-63
2022/03/03 07:48:29;;;;;;;17.23;10.07;;;;;;;1.96;79.41;94350.75;5034693;28;20692;-64
2022/03/03 07:50:58;;;;;;;15.90;9.83;;;;;;;2.03;79.88;94344.47;5034710;28;20170;-66
2022/03/03 07:53:24;;;;;;;16.20;9.83;;;;;;;1.95;78.78;94349.94;5032806;28;20313;-64
2022/03/03 07:55:54;;;;;;;17.40;10.40;;;;;;;1.95;79.16;94364.16;5034045;28;20275;-66
2022/03/03 07:58:26;;;;;;;17.23;9.30;;;;;;;1.96;79.46;94345.72;5034211;28;20206;-67
2022/03/03 08:00:57;;;;;;;18.70;9.93;;;;;;;1.85;78.84;94340.50;5034611;28;20170;-66
2022/03/03 08:03:24;;;;;;;16.60;9.73;;;;;;;1.86;79.12;94339.63;5033026;28;20289;-63
2022/03/03 08:05:58;;;;;;;20.23;10.37;;;;;;;1.90;78.87;94334.31;5034043;28;20261;-68
2022/03/03 08:08:27;;;;;;;17.90;9.73;;;;;;;2.05;79.11;94352.72;5032792;28;20680;-65
2022/03/03 08:11:16;;;;;;;18.17;9.47;;;;;;;2.07;78.13;94349.22;5034284;28;20192;-63
2022/03/03 08:13:43;;;;;;;15.60;9.83;;;;;;;1.97;78.44;94340.63;5032428;28;20759;-63
2022/03/03 08:16:09;;;;;;;14.33;9.27;;;;;;;2.05;78.29;94345.19;5033913;28;20205;-64
2022/03/03 08:18:36;;;;;;;18.10;10.13;;;;;;;2.09;78.75;94347.44;5034706;28;20326;-65
2022/03/03 08:21:10;;;;;;;22.00;10.33;;;;;;;2.14;77.99;94354.72;5033964;28;20687;-65
2022/03/03 08:23:35;;;;;;;17.20;9.67;;;;;;;2.05;78.09;94355.22;5033915;28;20199;-64
2022/03/03 08:26:04;;;;;;;17.67;9.80;;;;;;;2.20;78.79;94339.31;5033955;28;20671;-65
2022/03/03 08:28:32;;;;;;;17.63;9.77;;;;;;;2.32;78.17;94344.41;5033784;28;20221;-63
2022/03/03 08:31:01;;;;;;;20.40;10.17;;;;;;;2.47;76.78;94358.56;5033559;28;20179;-63
2022/03/03 08:33:52;;;;;;;16.80;9.70;;;;;;;2.56;76.94;94357.25;5034399;28;20202;-63
2022/03/03 08:36:29;;;;;;;16.73;8.63;;;;;;;2.66;74.54;94402.66;5033000;28;20229;-64
2022/03/03 08:39:01;;;;;;;13.80;9.40;;;;;;;2.73;75.71;94384.66;5033520;28;20717;-62
2022/03/03 08:41:30;;;;;;;15.27;9.03;;;;;;;2.81;75.54;94377.47;5033365;28;20171;-62
2022/03/03 08:43:58;;;;;;;15.40;9.07;;;;;;;2.88;75.12;94387.97;5034018;28;20274;-64
2022/03/03 08:46:26;;;;;;;13.47;8.90;;;;;;;3.02;74.96;94386.25;5032103;28;20239;-62
2022/03/03 08:48:57;;;;;;;13.87;8.67;;;;;;;3.04;74.24;94398.69;5033582;28;20210;-64
2022/03/03 08:51:24;;;;;;;14.20;9.03;;;;;;;2.88;74.28;94377.91;5032916;28;20167;-63
2022/03/03 08:53:49;;;;;;;17.27;9.43;;;;;;;2.98;74.85;94378.97;5031898;28;20203;-63
2022/03/03 08:56:15;;;;;;;14.67;10.17;;;;;;;3.09;73.79;94384.97;5015190;28;20267;-64
2022/03/03 08:58:40;;;;;;;15.53;9.07;;;;;;;3.00;74.53;94377.19;5031883;28;20700;-63
2022/03/03 09:01:06;;;;;;;16.60;9.50;;;;;;;2.86;73.97;94370.50;5032756;28;20185;-64
2022/03/03 09:03:32;;;;;;;20.77;10.23;;;;;;;3.14;75.39;94357.88;5033002;28;20221;-64
2022/03/03 09:05:57;;;;;;;14.37;8.57;;;;;;;3.18;73.44;94394.47;5032710;28;20661;-64
2022/03/03 09:08:24;;;;;;;11.47;8.00;;;;;;;3.07;72.84;94389.28;5032998;28;20279;-63
2022/03/03 09:10:56;;;;;;;18.67;9.57;;;;;;;3.08;73.51;94368.31;5032437;28;20668;-63
2022/03/03 09:13:25;;;;;;;14.43;8.70;;;;;;;3.07;73.36;94388.50;5032135;28;20199;-64
2022/03/03 09:15:51;;;;;;;15.70;8.40;;;;;;;2.97;73.83;94375.66;5032157;28;20313;-63
2022/03/03 09:18:17;;;;;;;16.40;9.40;;;;;;;3.12;73.71;94362.19;5032125;28;20278;-63
2022/03/03 09:20:42;;;;;;;15.10;9.30;;;;;;;3.36;74.03;94368.22;5031118;28;20178;-63
2022/03/03 09:23:08;;;;;;;12.43;8.13;;;;;;;3.47;72.87;94376.81;5032423;28;20213;-62
2022/03/03 09:25:36;;;;;;;16.77;9.60;;;;;;;3.45;72.52;94392.00;5030857;28;20178;-63
2022/03/03 09:28:03;;;;;;;16.07;9.67;;;;;;;3.59;71.32;94412.03;5032282;28;20288;-62
2022/03/03 09:30:29;;;;;;;14.17;8.47;;;;;;;3.41;71.13;94413.19;5020403;22;20257;-66
2022/03/03 09:32:55;;;;;;;13.20;9.27;;;;;;;3.57;71.27;94405.50;5012311;28;20195;-63
2022/03/03 09:35:20;;;;;;;15.57;8.80;;;;;;;3.52;70.44;94420.84;5012238;28;20635;-65
2022/03/03 09:37:46;;;;;;;17.00;9.23;;;;;;;3.36;71.04;94403.41;5012261;28;20585;-63
2022/03/03 09:40:12;;;;;;;14.83;8.93;;;;;;;3.41;72.14;94393.84;5012728;28;20179;-63
2022/03/03 09:42:38;;;;;;;13.70;9.27;;;;;;;3.47;71.49;94396.91;5012340;28;20207;-64
2022/03/03 09:45:06;;;;;;;13.73;8.00;;;;;;;3.84;69.91;94408.78;5037984;23;20286;-63
2022/03/03 09:47:35;;;;;;;15.97;9.83;;;;;;;3.90;70.67;94398.38;5032043;28;20231;-63
2022/03/03 09:50:01;;;;;;;13.70;8.93;;;;;;;3.97;70.26;94414.69;5012289;28;20266;-63
2022/03/03 09:52:28;;;;;;;14.77;9.50;;;;;;;4.66;68.07;94460.50;5012088;28;20191;-62
2022/03/03 09:54:55;;;;;;;12.07;7.17;;;;;;;4.91;65.90;94493.22;5011929;28;20213;-62
2022/03/03 09:57:28;;;;;;;14.27;8.43;;;;;;;5.31;65.59;94488.09;5012197;28;20209;-63
2022/03/03 09:59:53;;;;;;;13.13;8.17;;;;;;;5.64;62.62;94556.38;5011768;28;20212;-64
2022/03/03 10:02:21;;;;;;;12.13;8.37;;;;;;;5.94;61.08;94559.38;5011920;28;20181;-64
2022/03/03 10:04:47;;;;;;;13.30;7.87;;;;;;;6.15;61.26;94550.34;5011831;28;20208;-63
2022/03/03 10:07:12;;;;;;;11.30;7.27;;;;;;;5.68;61.10;94510.69;5010396;28;20709;-63
2022/03/03 10:12:27;;;;;;;12.27;8.07;;;;;;;4.67;64.85;94419.31;5010791;28;20611;-65
2022/03/03 10:15:00;;;;;;;11.23;7.70;;;;;;;4.20;66.20;94387.16;5011641;28;20289;-62
2022/03/03 10:17:38;;;;;;;12.97;9.20;;;;;;;3.94;66.59;94377.16;5011990;28;20217;-62
2022/03/03 10:20:05;;;;;;;13.63;8.30;;;;;;;4.00;66.29;94379.28;5011770;28;20262;-62
2022/03/03 10:22:57;;;;;;;13.33;7.73;;;;;;;3.97;66.84;94369.41;5026792;28;20183;-63
2022/03/03 10:25:38;;;;;;;10.67;7.60;;;;;;;4.27;67.60;94372.47;5011717;28;20163;-63
2022/03/03 10:28:14;;;;;;;13.83;9.10;;;;;;;4.20;67.82;94359.47;5011768;28;20206;-61
2022/03/03 10:31:22;;;;;;;17.10;9.33;;;;;;;4.17;67.00;94373.97;5016482;28;20655;-61
2022/03/03 10:33:51;;;;;;;10.37;7.80;;;;;;;4.25;67.04;94366.75;5006938;28;20249;-62
2022/03/03 10:36:26;;;;;;;11.90;7.93;;;;;;;4.26;66.41;94363.34;5018123;28;20700;-63
2022/03/03 10:38:54;;;;;;;13.93;8.13;;;;;;;4.28;67.29;94372.38;5017108;28;20605;-62
2022/03/03 10:41:27;;;;;;;12.13;7.87;;;;;;;4.14;66.89;94351.56;5033134;28;20218;-62
2022/03/03 10:43:52;;;;;;;11.37;7.37;;;;;;;4.20;66.89;94349.41;5016667;28;20214;-62
2022/03/03 10:46:18;;;;;;;14.27;8.80;;;;;;;4.50;67.50;94345.81;5016254;28;20563;-63
2022/03/03 10:48:43;;;;;;;14.40;8.63;;;;;;;4.51;67.13;94355.78;5015615;28;20285;-62
2022/03/03 10:51:13;;;;;;;13.63;8.37;;;;;;;4.57;66.91;94354.56;5017590;28;20186;-64
2022/03/03 10:53:38;;;;;;;13.10;8.07;;;;;;;4.52;66.97;94357.41;5018303;28;20645;-61
2022/03/03 10:56:07;;;;;;;12.50;8.63;;;;;;;4.38;66.29;94381.84;5017818;28;20207;-62
2022/03/03 10:59:08;;;;;;;12.97;7.33;;;;;;;4.28;66.71;94343.09;5018217;28;20198;-61
2022/03/03 11:01:34;;;;;;;12.17;8.17;;;;;;;4.38;68.00;94326.50;5006575;28;20204;-62
2022/03/03 11:04:00;;;;;;;15.60;8.27;;;;;;;4.19;66.21;94364.63;5017566;28;20203;-61
2022/03/03 11:06:30;;;;;;;12.23;8.67;;;;;;;4.08;67.44;94341.88;5018107;28;20178;-63
2022/03/03 11:08:59;;;;;;;13.27;7.80;;;;;;;4.17;67.77;94336.25;5018146;28;20214;-62
2022/03/03 11:11:25;;;;;;;15.17;8.50;;;;;;;4.16;67.09;94344.72;5017759;28;20175;-61
2022/03/03 11:13:52;;;;;;;11.70;7.63;;;;;;;4.11;67.46;94329.91;5016432;28;20207;-62
2022/03/03 11:16:25;;;;;;;16.17;8.20;;;;;;;4.23;67.57;94319.06;5016186;28;20693;-62
2022/03/03 11:18:51;;;;;;;16.70;7.80;;;;;;;4.24;68.12;94328.19;5017557;28;20213;-62
2022/03/03 11:21:17;;;;;;;12.87;8.43;;;;;;;4.34;66.64;94361.13;5016429;28;20221;-61
2022/03/03 11:23:52;;;;;;;14.67;7.50;;;;;;;4.24;65.96;94370.19;5016636;28;20280;-61
2022/03/03 11:26:28;;;;;;;16.30;8.10;;;;;;;4.24;66.42;94365.94;5017958;28;20185;-62
2022/03/03 11:28:59;;;;;;;12.47;8.60;;;;;;;4.39;66.29;94363.31;5033093;28;20294;-63
2022/03/03 11:31:30;;;;;;;14.30;8.20;;;;;;;4.41;66.60;94341.38;5017964;28;20179;-62
2022/03/03 11:34:30;;;;;;;10.07;7.20;;;;;;;4.30;66.06;94363.94;5017630;28;20682;-63
2022/03/03 11:37:22;;;;;;;14.97;8.63;;;;;;;4.13;66.11;94362.50;5016310;28;20210;-62